Terminal Aerodrome Forecast
Issued by NWS Cleveland, OH

Home | Current Version | Previous Version | Graphics & Text | Print | Product List | Glossary On
Versions: 1 2 3 4 5 6 7 8 9 10 11 12 13 14 15 16 17 18 19 20 21 22 23 24 25 26 27
000
FTUS41 KCLE 281100
TAFCLE
TAF
KCLE 281135Z 2812/2918 20012KT P6SM BKN120 WS020/22040KT
     FM281500 21015G25KT P6SM SCT040 OVC120
     FM281800 22020G30KT 5SM -SHRA VCTS OVC035CB
     FM282100 25015G25KT 5SM -SHRA OVC025
     FM290200 26010KT P6SM OVC035=

USA.gov is the U.S. government's official web portal to all federal, state and local government web resources and services.